Time;durP1;ratioP1;P1;durP2;ratioP2;P2;SDS_P1;SDS_P2;PMS_P1;PMS_P2;Temp;Humidity;BMP_temperature;BMP_pressure;BME280_temperature;BME280_humidity;BME280_pressure;Samples;Min_cycle;Max_cycle;Signal;HPM_P1;HPM_P2
2022/03/28 00:00:31;;;;;;;1.22;0.90;;;;;;;-0.09;60.92;102288.67;1770557;81;21178;-60
2022/03/28 00:03:00;;;;;;;2.55;1.10;;;;;;;-0.10;60.94;102295.56;1761562;81;21066;-58
2022/03/28 00:05:29;;;;;;;5.37;1.47;;;;;;;-0.08;60.89;102301.66;1764711;80;21152;-57
2022/03/28 00:07:58;;;;;;;5.78;1.20;;;;;;;-0.10;60.96;102302.04;1761530;80;21558;-60
2022/03/28 00:10:27;;;;;;;3.70;1.10;;;;;;;-0.12;61.00;102299.83;1770024;81;21125;-60
2022/03/28 00:12:56;;;;;;;1.98;1.30;;;;;;;-0.16;61.07;102308.34;1766267;81;21062;-59
2022/03/28 00:15:24;;;;;;;6.35;1.20;;;;;;;-0.18;61.14;102313.89;1779019;80;21033;-60
2022/03/28 00:17:53;;;;;;;2.20;1.02;;;;;;;-0.20;61.18;102311.67;1781607;79;21142;-60
2022/03/28 00:20:23;;;;;;;6.08;1.32;;;;;;;-0.25;61.22;102310.22;1798712;79;21101;-60
2022/03/28 00:22:52;;;;;;;1.90;0.93;;;;;;;-0.28;61.28;102315.72;1790117;79;21188;-61
2022/03/28 00:25:20;;;;;;;2.05;1.05;;;;;;;-0.29;61.32;102316.57;1797749;79;21070;-59
2022/03/28 00:27:49;;;;;;;2.83;1.02;;;;;;;-0.31;61.30;102316.95;1795161;79;21489;-59
2022/03/28 00:30:17;;;;;;;3.77;1.30;;;;;;;-0.32;61.32;102321.64;1799811;79;21077;-61
2022/03/28 00:32:46;;;;;;;3.02;1.00;;;;;;;-0.33;61.29;102327.64;1794673;79;21219;-62
2022/03/28 00:35:15;;;;;;;2.02;1.10;;;;;;;-0.35;61.32;102324.13;1805935;79;21129;-63
2022/03/28 00:37:44;;;;;;;2.22;0.85;;;;;;;-0.36;61.36;102326.27;1806026;79;21058;-62
2022/03/28 00:40:13;;;;;;;1.90;1.00;;;;;;;-0.37;61.36;102325.79;1804930;79;21093;-64
2022/03/28 00:42:42;;;;;;;1.32;1.00;;;;;;;-0.37;61.35;102334.84;1803951;79;21647;-64
2022/03/28 00:45:11;;;;;;;2.02;0.95;;;;;;;-0.37;61.34;102334.84;1808635;78;21620;-64
2022/03/28 00:47:39;;;;;;;2.80;1.05;;;;;;;-0.36;61.36;102336.62;1803003;79;21571;-58
2022/03/28 00:50:11;;;;;;;5.90;1.75;;;;;;;-0.36;61.40;102335.33;1823578;78;21124;-59
2022/03/28 00:52:40;;;;;;;6.05;1.22;;;;;;;-0.35;61.41;102338.36;1850042;76;21549;-58
2022/03/28 00:55:10;;;;;;;2.15;0.80;;;;;;;-0.33;61.41;102339.28;1857772;76;21591;-59
2022/03/28 00:57:41;;;;;;;2.60;1.00;;;;;;;-0.31;61.32;102342.41;1854310;76;21525;-58
2022/03/28 01:00:10;;;;;;;2.12;1.20;;;;;;;-0.32;61.31;102348.39;1852957;76;21048;-57
2022/03/28 01:02:39;;;;;;;7.50;1.62;;;;;;;-0.35;61.30;102347.42;1851144;76;21519;-58
2022/03/28 01:05:09;;;;;;;3.25;1.22;;;;;;;-0.35;61.38;102347.03;1843662;76;21633;-58
2022/03/28 01:07:40;;;;;;;2.70;1.70;;;;;;;-0.31;61.38;102354.48;1851018;76;21563;-58
2022/03/28 01:10:12;;;;;;;6.37;1.07;;;;;;;-0.30;61.24;102357.09;1853399;76;21044;-59
2022/03/28 01:12:42;;;;;;;6.30;1.25;;;;;;;-0.31;61.21;102354.48;1858617;76;21078;-60
2022/03/28 01:15:14;;;;;;;3.60;1.00;;;;;;;-0.34;61.24;102355.23;1849011;76;21017;-59
2022/03/28 01:20:35;;;;;;;1.72;1.15;;;;;;;-0.38;61.30;102368.05;1847139;76;21047;-60
2022/03/28 01:23:04;;;;;;;1.12;0.93;;;;;;;-0.43;61.32;102359.70;1848030;78;21117;-59
2022/03/28 01:25:33;;;;;;;2.40;1.40;;;;;;;-0.47;61.38;102365.61;1842554;78;21045;-60
2022/03/28 01:28:03;;;;;;;2.85;1.27;;;;;;;-0.48;61.40;102366.84;1834147;78;21065;-60
2022/03/28 01:30:33;;;;;;;3.65;1.32;;;;;;;-0.53;61.52;102366.72;1802794;79;21111;-59
2022/03/28 01:33:02;;;;;;;5.65;1.55;;;;;;;-0.52;61.51;102364.58;1834332;78;21139;-59
2022/03/28 01:35:36;;;;;;;2.50;1.67;;;;;;;-0.52;61.50;102369.75;1802742;79;21033;-59
2022/03/28 01:38:07;;;;;;;3.95;1.80;;;;;;;-0.52;61.54;102373.63;1841795;78;21530;-58
2022/03/28 01:40:39;;;;;;;4.55;1.92;;;;;;;-0.53;61.57;102377.06;1847975;76;21228;-60
2022/03/28 01:43:08;;;;;;;3.40;1.62;;;;;;;-0.54;61.67;102375.30;1816017;79;21035;-58
2022/03/28 01:45:36;;;;;;;4.97;2.15;;;;;;;-0.56;61.79;102378.67;1848181;78;21063;-58
2022/03/28 01:48:06;;;;;;;4.58;1.95;;;;;;;-0.59;62.14;102377.75;1847998;78;21181;-59
2022/03/28 01:50:35;;;;;;;5.97;2.55;;;;;;;-0.59;62.08;102384.22;1853983;77;21097;-57
2022/03/28 01:53:05;;;;;;;3.72;1.98;;;;;;;-0.60;62.11;102388.04;1855355;77;21133;-59
2022/03/28 01:55:34;;;;;;;3.22;2.02;;;;;;;-0.61;62.41;102397.91;1855494;77;21492;-57
2022/03/28 01:58:02;;;;;;;4.47;1.52;;;;;;;-0.61;62.22;102400.49;1855490;77;21132;-60
2022/03/28 02:00:36;;;;;;;2.92;1.70;;;;;;;-0.60;62.13;102407.02;1855733;77;21046;-61
2022/03/28 02:03:01;;;;;;;2.00;1.62;;;;;;;-0.59;62.06;102406.20;1854519;77;21161;-61
2022/03/28 02:05:30;;;;;;;4.72;1.70;;;;;;;-0.60;62.05;102413.48;1855370;77;21560;-59
2022/03/28 02:07:59;;;;;;;3.72;1.57;;;;;;;-0.60;62.06;102410.03;1855459;77;21469;-60
2022/03/28 02:10:28;;;;;;;7.45;2.20;;;;;;;-0.61;62.10;102412.14;1855510;77;22156;-59
2022/03/28 02:12:57;;;;;;;8.35;1.85;;;;;;;-0.60;62.20;102412.62;1855551;77;21046;-62
2022/03/28 02:15:26;;;;;;;5.08;1.90;;;;;;;-0.57;62.33;102414.42;1833302;77;21487;-63
2022/03/28 02:17:55;;;;;;;2.77;1.42;;;;;;;-0.57;62.33;102428.26;1833288;77;21668;-62
2022/03/28 02:20:23;;;;;;;3.30;2.30;;;;;;;-0.56;62.29;102428.70;1855523;77;21074;-61
2022/03/28 02:22:52;;;;;;;4.42;1.90;;;;;;;-0.59;62.30;102425.61;1855528;77;21042;-60
2022/03/28 02:25:20;;;;;;;2.85;1.50;;;;;;;-0.58;62.34;102430.36;1855697;77;21127;-61
2022/03/28 02:30:39;;;;;;;6.62;3.60;;;;;;;-0.57;62.44;102429.55;1735522;83;21142;-60
2022/03/28 02:33:08;;;;;;;8.13;6.03;;;;;;;-0.56;62.41;102440.77;1721156;83;21640;-60
2022/03/28 02:35:37;;;;;;;7.53;4.75;;;;;;;-0.58;62.42;102439.42;1721142;83;21111;-59
2022/03/28 02:38:06;;;;;;;3.52;2.80;;;;;;;-0.57;62.41;102441.20;1721039;82;21629;-59
2022/03/28 02:40:35;;;;;;;3.98;1.20;;;;;;;-0.59;62.44;102445.02;1721074;83;21147;-61
2022/03/28 02:43:04;;;;;;;7.95;1.07;;;;;;;-0.57;62.49;102440.29;1720983;83;21657;-61
2022/03/28 02:45:35;;;;;;;2.98;2.27;;;;;;;-0.58;62.59;102444.59;1721102;83;21660;-61
2022/03/28 02:48:07;;;;;;;5.12;3.33;;;;;;;-0.59;62.67;102446.70;1721083;83;21174;-63
2022/03/28 02:50:36;;;;;;;4.65;1.85;;;;;;;-0.60;62.71;102451.42;1721188;83;21123;-62
2022/03/28 02:53:05;;;;;;;7.85;2.65;;;;;;;-0.60;62.71;102460.06;1721089;83;21107;-61
2022/03/28 02:55:34;;;;;;;4.20;1.70;;;;;;;-0.57;62.67;102460.98;1721121;82;21115;-63
2022/03/28 02:58:02;;;;;;;4.42;2.00;;;;;;;-0.57;62.67;102470.95;1721060;83;21624;-62
2022/03/28 03:00:31;;;;;;;1.15;0.90;;;;;;;-0.56;62.65;102483.47;1721132;83;21492;-62
2022/03/28 03:03:00;;;;;;;3.70;1.55;;;;;;;-0.55;62.65;102482.23;1721137;83;21119;-60
2022/03/28 03:05:29;;;;;;;2.33;1.90;;;;;;;-0.55;62.72;102490.38;1721182;83;21229;-61
2022/03/28 03:07:57;;;;;;;5.75;2.00;;;;;;;-0.55;62.72;102489.99;1721166;83;21161;-61
2022/03/28 03:10:26;;;;;;;8.63;2.40;;;;;;;-0.52;62.77;102506.89;1721185;83;21158;-61
2022/03/28 03:12:55;;;;;;;7.83;1.92;;;;;;;-0.49;62.75;102503.55;1721242;83;21087;-62
2022/03/28 03:15:23;;;;;;;3.35;1.10;;;;;;;-0.46;62.66;102502.34;1720060;83;21157;-61
2022/03/28 03:17:52;;;;;;;5.53;2.10;;;;;;;-0.45;62.62;102510.17;1719971;83;21102;-61
2022/03/28 03:20:21;;;;;;;8.08;1.75;;;;;;;-0.44;62.61;102514.53;1719797;83;21533;-61
2022/03/28 03:22:49;;;;;;;6.08;1.98;;;;;;;-0.42;62.62;102515.89;1719871;83;21123;-62
2022/03/28 03:25:18;;;;;;;5.25;1.75;;;;;;;-0.43;62.59;102512.39;1719942;82;21087;-64
2022/03/28 03:27:51;;;;;;;7.03;1.85;;;;;;;-0.40;62.58;102507.33;1720044;83;21099;-61
2022/03/28 03:30:17;;;;;;;1.90;0.98;;;;;;;-0.36;62.70;102511.33;1747558;81;21108;-61
2022/03/28 03:32:46;;;;;;;6.22;2.35;;;;;;;-0.32;62.60;102515.78;1744003;82;21123;-63
2022/03/28 03:35:14;;;;;;;5.60;1.80;;;;;;;-0.28;62.57;102517.63;1743861;82;21668;-62
2022/03/28 03:37:43;;;;;;;3.92;1.80;;;;;;;-0.27;62.55;102522.88;1743902;82;21236;-62
2022/03/28 03:40:12;;;;;;;3.52;2.00;;;;;;;-0.24;62.51;102527.27;1743804;82;21272;-62
2022/03/28 03:42:41;;;;;;;3.15;1.55;;;;;;;-0.20;62.43;102524.84;1743775;82;21178;-60
2022/03/28 03:45:11;;;;;;;1.67;1.20;;;;;;;-0.20;62.48;102523.97;1744017;82;21593;-60
2022/03/28 03:47:39;;;;;;;2.47;1.42;;;;;;;-0.19;62.44;102527.01;1743757;82;21120;-65
2022/03/28 03:50:09;;;;;;;4.05;2.12;;;;;;;-0.18;62.43;102528.78;1743814;82;21079;-63
2022/03/28 03:52:38;;;;;;;4.28;1.55;;;;;;;-0.17;62.42;102530.95;1743911;81;21222;-62
2022/03/28 03:55:09;;;;;;;3.12;1.67;;;;;;;-0.15;62.38;102533.17;1743842;82;21075;-61
2022/03/28 03:57:37;;;;;;;4.45;2.15;;;;;;;-0.11;62.30;102541.50;1743897;82;21229;-62
2022/03/28 04:00:08;;;;;;;4.30;1.98;;;;;;;-0.09;62.21;102547.22;1743927;82;21095;-62
2022/03/28 04:02:42;;;;;;;2.35;1.42;;;;;;;-0.06;62.15;102557.66;1743812;82;21098;-62
2022/03/28 04:05:11;;;;;;;3.42;1.52;;;;;;;-0.03;62.08;102559.07;1743831;82;21075;-62
2022/03/28 04:07:40;;;;;;;2.05;1.47;;;;;;;-0.01;61.95;102549.64;1743990;81;21566;-63
2022/03/28 04:10:10;;;;;;;2.60;1.72;;;;;;;0.01;61.92;102548.83;1744022;82;21589;-64
2022/03/28 04:12:40;;;;;;;3.17;2.27;;;;;;;0.02;61.89;102553.16;1743754;81;21176;-63
2022/03/28 04:15:10;;;;;;;4.45;3.10;;;;;;;0.06;61.90;102555.05;1742578;82;21084;-62
2022/03/28 04:17:43;;;;;;;5.35;2.75;;;;;;;0.08;61.84;102556.84;1771634;81;21174;-62
2022/03/28 04:20:14;;;;;;;12.87;3.63;;;;;;;0.11;61.86;102569.91;1772049;81;21108;-61
2022/03/28 04:22:45;;;;;;;7.15;3.65;;;;;;;0.15;61.64;102574.78;1771735;80;21146;-63
2022/03/28 04:25:15;;;;;;;6.20;1.90;;;;;;;0.18;61.56;102580.95;1771551;81;21162;-62
2022/03/28 04:27:44;;;;;;;3.60;1.60;;;;;;;0.24;61.51;102589.34;1771726;81;21229;-63
2022/03/28 04:30:14;;;;;;;6.53;2.70;;;;;;;0.32;61.47;102590.88;1765146;81;21216;-64
2022/03/28 04:32:43;;;;;;;5.70;2.33;;;;;;;0.35;61.37;102582.80;1747423;82;21155;-63
2022/03/28 04:35:13;;;;;;;1.85;1.37;;;;;;;0.41;61.25;102595.06;1747470;82;21056;-62
2022/03/28 04:37:43;;;;;;;3.08;1.37;;;;;;;0.51;61.08;102598.41;1747346;82;21208;-63
2022/03/28 04:40:15;;;;;;;5.12;2.20;;;;;;;0.59;60.96;102603.86;1747507;82;21459;-63
2022/03/28 04:42:45;;;;;;;5.53;1.90;;;;;;;0.67;60.89;102602.38;1747460;81;21173;-62
2022/03/28 04:45:14;;;;;;;5.00;2.27;;;;;;;0.73;60.48;102608.17;1746769;82;21518;-62
2022/03/28 04:47:43;;;;;;;2.65;1.32;;;;;;;0.82;60.56;102600.68;1747428;81;21664;-63
2022/03/28 04:50:12;;;;;;;6.65;2.10;;;;;;;1.01;60.65;102603.41;1747385;82;21114;-63
2022/03/28 04:52:40;;;;;;;4.85;2.08;;;;;;;1.22;60.52;102599.30;1747572;82;21494;-62
2022/03/28 04:55:10;;;;;;;5.95;1.50;;;;;;;1.45;60.46;102601.67;1747607;81;21593;-62
2022/03/28 04:57:39;;;;;;;9.35;1.87;;;;;;;1.84;60.25;102606.20;1747537;82;21055;-63
2022/03/28 05:00:10;;;;;;;4.50;1.95;;;;;;;2.30;59.80;102603.07;1747500;81;21146;-64
2022/03/28 05:02:38;;;;;;;2.77;1.20;;;;;;;2.96;59.86;102604.19;1747351;82;21141;-60
2022/03/28 05:05:08;;;;;;;2.85;1.50;;;;;;;3.51;58.98;102603.19;1747486;82;21534;-63
2022/03/28 05:07:37;;;;;;;2.20;1.37;;;;;;;3.89;58.66;102609.55;1747532;82;21158;-64
2022/03/28 05:10:07;;;;;;;3.62;1.12;;;;;;;4.27;56.94;102606.33;1747440;82;21154;-66
2022/03/28 05:12:36;;;;;;;4.67;2.02;;;;;;;4.50;56.62;102596.69;1747439;82;21079;-64
2022/03/28 05:15:06;;;;;;;2.67;1.17;;;;;;;4.82;56.78;102601.11;1727194;82;21537;-64
2022/03/28 05:17:35;;;;;;;3.95;1.85;;;;;;;5.34;57.02;102601.80;1765916;80;21043;-64
2022/03/28 05:20:05;;;;;;;2.80;1.70;;;;;;;5.89;56.42;102603.31;1736665;83;21123;-64
2022/03/28 05:22:34;;;;;;;1.77;1.22;;;;;;;6.44;56.06;102605.15;1736733;83;21119;-62
2022/03/28 05:25:03;;;;;;;5.67;1.40;;;;;;;6.95;55.61;102602.45;1766054;81;21158;-62
2022/03/28 05:27:34;;;;;;;2.98;1.45;;;;;;;7.16;52.12;102611.30;1765724;81;21585;-62
2022/03/28 05:30:22;;;;;;;3.60;1.72;;;;;;;7.47;52.28;102607.48;1803832;79;21138;-63
2022/03/28 05:32:50;;;;;;;6.15;3.35;;;;;;;7.63;49.03;102602.73;1805258;79;21057;-61
2022/03/28 05:35:19;;;;;;;8.05;2.98;;;;;;;7.83;49.46;102611.10;1835462;78;21057;-61
2022/03/28 05:37:48;;;;;;;6.12;2.62;;;;;;;8.28;49.79;102609.40;1841721;78;21515;-62
2022/03/28 05:40:16;;;;;;;8.15;1.50;;;;;;;8.96;50.57;102610.24;1831778;78;21593;-62
2022/03/28 05:42:45;;;;;;;5.45;1.57;;;;;;;9.59;50.39;102615.71;1832082;78;21500;-61
2022/03/28 05:45:14;;;;;;;4.97;1.50;;;;;;;10.21;50.28;102618.40;1831949;78;21476;-64
2022/03/28 05:47:43;;;;;;;3.80;1.32;;;;;;;10.86;50.19;102618.31;1832014;78;21577;-65
2022/03/28 05:50:12;;;;;;;3.05;0.98;;;;;;;11.41;49.40;102615.05;1832137;78;21136;-63
2022/03/28 05:52:41;;;;;;;1.27;0.95;;;;;;;11.77;48.50;102624.70;1831834;78;21101;-63
2022/03/28 05:55:10;;;;;;;1.72;0.90;;;;;;;12.17;47.70;102617.52;1832007;78;21069;-64
2022/03/28 05:57:39;;;;;;;2.45;0.90;;;;;;;12.33;46.19;102623.44;1832021;78;21042;-63
2022/03/28 06:00:09;;;;;;;2.77;1.22;;;;;;;12.71;45.63;102628.08;1832162;78;21065;-63
2022/03/28 06:02:41;;;;;;;2.62;0.95;;;;;;;13.04;44.90;102629.68;1831971;78;21082;-63
2022/03/28 06:05:10;;;;;;;4.22;1.05;;;;;;;13.29;44.43;102635.34;1831820;78;21128;-62
2022/03/28 06:07:39;;;;;;;7.30;1.20;;;;;;;13.71;43.60;102631.41;1831912;78;21465;-63
2022/03/28 06:10:08;;;;;;;3.37;1.00;;;;;;;14.04;43.24;102624.93;1831917;78;21579;-62
2022/03/28 06:12:37;;;;;;;1.62;1.00;;;;;;;14.31;42.12;102635.75;1831934;78;21034;-62
2022/03/28 06:15:06;;;;;;;1.45;0.78;;;;;;;14.43;40.60;102640.77;1826928;78;21105;-63
2022/03/28 06:17:35;;;;;;;6.83;1.20;;;;;;;14.70;39.97;102636.15;1825267;79;21054;-64
2022/03/28 06:20:05;;;;;;;1.42;0.90;;;;;;;14.78;38.84;102643.47;1825201;79;21018;-64
2022/03/28 06:22:35;;;;;;;2.58;0.90;;;;;;;14.95;38.70;102651.83;1804499;79;21067;-64
2022/03/28 06:25:05;;;;;;;3.00;0.88;;;;;;;15.00;37.09;102653.91;1834472;78;21169;-64
2022/03/28 06:27:36;;;;;;;1.22;0.80;;;;;;;14.96;36.18;102656.70;1820116;79;21113;-64
2022/03/28 06:30:05;;;;;;;6.37;0.90;;;;;;;15.12;37.08;102655.80;1795168;79;21088;-64
2022/03/28 06:32:34;;;;;;;2.30;0.80;;;;;;;15.16;36.19;102655.69;1820238;79;21162;-63
2022/03/28 06:35:04;;;;;;;2.27;0.90;;;;;;;15.00;35.62;102653.05;1820375;79;21067;-64
2022/03/28 06:37:34;;;;;;;2.45;0.80;;;;;;;14.92;35.43;102654.58;1782101;80;21133;-64
2022/03/28 06:40:04;;;;;;;5.83;0.82;;;;;;;14.99;35.64;102661.44;1818182;79;21509;-64
2022/03/28 06:42:33;;;;;;;1.92;0.80;;;;;;;14.89;35.53;102652.47;1820368;79;21030;-62
2022/03/28 06:45:04;;;;;;;3.10;0.80;;;;;;;15.23;35.44;102645.76;1791060;79;21575;-61
2022/03/28 06:47:32;;;;;;;2.10;1.00;;;;;;;15.58;34.30;102645.20;1820451;79;21154;-62
2022/03/28 06:50:02;;;;;;;5.30;1.20;;;;;;;16.16;34.90;102651.41;1820380;79;21191;-63
2022/03/28 06:52:30;;;;;;;2.33;0.80;;;;;;;16.42;33.63;102662.98;1782219;80;21081;-61
2022/03/28 06:54:59;;;;;;;5.58;0.80;;;;;;;16.17;31.90;102655.78;1818245;79;21125;-61
2022/03/28 06:57:27;;;;;;;3.00;1.65;;;;;;;15.14;32.23;102656.63;1820398;79;21263;-61
2022/03/28 06:59:56;;;;;;;3.33;0.80;;;;;;;14.66;32.42;102665.41;1791099;80;21138;-62
2022/03/28 07:02:25;;;;;;;3.30;1.32;;;;;;;14.90;32.34;102655.05;1820548;79;21075;-61
2022/03/28 07:04:53;;;;;;;1.62;0.80;;;;;;;15.57;31.94;102655.42;1820498;79;21079;-61
2022/03/28 07:07:22;;;;;;;2.58;0.93;;;;;;;15.81;31.47;102652.05;1782326;80;21063;-62
2022/03/28 07:09:50;;;;;;;5.65;1.20;;;;;;;16.42;31.75;102653.67;1818003;79;21103;-62
2022/03/28 07:12:19;;;;;;;1.92;1.00;;;;;;;16.87;31.53;102663.69;1820409;79;21128;-61
2022/03/28 07:14:48;;;;;;;1.75;0.82;;;;;;;16.57;31.50;102665.11;1797449;80;21085;-60
2022/03/28 07:17:16;;;;;;;3.12;0.90;;;;;;;17.31;31.18;102658.55;1833101;78;21161;-60
2022/03/28 07:19:46;;;;;;;1.30;1.10;;;;;;;18.05;29.77;102660.22;1832857;78;21519;-62
2022/03/28 07:22:16;;;;;;;2.87;0.80;;;;;;;18.55;29.88;102664.41;1832714;78;21089;-61
2022/03/28 07:24:44;;;;;;;2.87;0.90;;;;;;;18.92;29.14;102661.53;1832851;78;21464;-61
2022/03/28 07:27:14;;;;;;;2.45;1.10;;;;;;;17.95;29.05;102653.06;1833008;78;21073;-61
2022/03/28 07:29:43;;;;;;;4.15;0.98;;;;;;;17.58;29.41;102659.80;1833338;78;21579;-61
2022/03/28 07:32:13;;;;;;;3.35;1.00;;;;;;;16.95;28.58;102658.98;1835695;77;21147;-61
2022/03/28 07:34:42;;;;;;;3.50;0.90;;;;;;;16.85;28.74;102654.89;1835285;78;21061;-62
2022/03/28 07:37:10;;;;;;;3.60;0.90;;;;;;;16.62;28.97;102659.66;1835467;78;21049;-61
2022/03/28 07:39:40;;;;;;;6.70;1.07;;;;;;;16.32;28.97;102653.55;1835537;78;21054;-62
2022/03/28 07:42:10;;;;;;;3.60;1.20;;;;;;;15.32;29.43;102663.21;1835565;78;21014;-62
2022/03/28 07:44:38;;;;;;;4.03;1.15;;;;;;;15.87;29.17;102652.78;1835446;78;21492;-61
2022/03/28 07:47:08;;;;;;;3.37;1.12;;;;;;;15.95;28.91;102652.97;1835637;78;21191;-61
2022/03/28 07:49:42;;;;;;;2.47;0.90;;;;;;;15.40;29.32;102658.54;1835462;78;21081;-62
2022/03/28 07:52:08;;;;;;;2.67;0.90;;;;;;;15.83;29.34;102655.52;1834949;78;21070;-63
2022/03/28 07:54:37;;;;;;;5.33;0.95;;;;;;;15.50;29.59;102651.20;1835425;78;21633;-61
2022/03/28 07:57:06;;;;;;;2.75;0.90;;;;;;;15.74;29.02;102656.27;1835748;78;21022;-61
2022/03/28 07:59:35;;;;;;;2.80;1.15;;;;;;;16.34;28.34;102656.59;1835569;78;21053;-59
2022/03/28 08:02:04;;;;;;;4.03;1.12;;;;;;;16.79;28.33;102657.74;1835446;78;21089;-61
2022/03/28 08:04:32;;;;;;;5.22;1.32;;;;;;;16.52;28.13;102655.09;1835437;78;21136;-61
2022/03/28 08:07:03;;;;;;;2.45;1.10;;;;;;;16.33;28.29;102652.65;1835467;77;21062;-62
2022/03/28 08:09:32;;;;;;;9.03;1.27;;;;;;;15.42;28.90;102648.78;1835506;78;21069;-60
2022/03/28 08:12:02;;;;;;;4.62;1.80;;;;;;;14.65;28.38;102646.42;1835667;78;21077;-61
2022/03/28 08:14:31;;;;;;;5.30;1.32;;;;;;;13.88;29.08;102648.70;1819835;78;21047;-63
2022/03/28 08:17:00;;;;;;;3.27;0.93;;;;;;;14.09;29.61;102639.38;1801264;80;21062;-62
2022/03/28 08:19:29;;;;;;;6.35;1.10;;;;;;;15.43;29.27;102629.27;1834834;78;21157;-62
2022/03/28 08:21:57;;;;;;;6.10;1.10;;;;;;;15.00;29.30;102639.31;1834827;78;21126;-61
2022/03/28 08:24:26;;;;;;;7.22;1.30;;;;;;;14.44;29.51;102636.32;1829216;78;21069;-61
2022/03/28 08:26:55;;;;;;;8.53;1.25;;;;;;;15.91;28.84;102629.19;1804902;79;21075;-61
2022/03/28 08:29:24;;;;;;;6.95;1.35;;;;;;;17.38;28.12;102629.06;1835032;78;21482;-60
2022/03/28 08:31:53;;;;;;;4.50;1.10;;;;;;;18.28;27.50;102617.97;1834898;78;21107;-60
2022/03/28 08:34:22;;;;;;;4.22;1.62;;;;;;;18.77;24.52;102613.18;1829013;78;21077;-61
2022/03/28 08:36:51;;;;;;;6.10;1.30;;;;;;;18.58;23.71;102610.46;1805102;79;21145;-60
2022/03/28 08:39:19;;;;;;;6.05;1.10;;;;;;;18.65;24.05;102611.07;1834852;78;21056;-63
2022/03/28 08:41:49;;;;;;;3.98;1.10;;;;;;;19.34;24.18;102618.67;1834845;78;21181;-60
2022/03/28 08:44:20;;;;;;;5.25;1.10;;;;;;;19.77;22.69;102610.46;1829050;78;21065;-60
2022/03/28 08:46:49;;;;;;;2.83;0.98;;;;;;;20.08;22.71;102600.95;1841115;78;21045;-61
2022/03/28 08:49:20;;;;;;;3.22;1.40;;;;;;;20.25;22.94;102607.64;1841098;78;21601;-62
2022/03/28 08:51:49;;;;;;;5.28;1.40;;;;;;;20.36;20.01;102606.66;1835049;78;21568;-63
2022/03/28 08:54:18;;;;;;;5.00;1.35;;;;;;;19.91;20.92;102605.31;1829144;78;21477;-62
2022/03/28 08:56:48;;;;;;;6.90;1.35;;;;;;;20.21;21.61;102595.38;1805004;79;21521;-60
2022/03/28 08:59:16;;;;;;;5.03;1.10;;;;;;;20.42;21.91;102600.98;1834902;78;21059;-61
2022/03/28 09:01:48;;;;;;;5.37;1.60;;;;;;;20.72;21.89;102596.83;1840142;77;21036;-62
2022/03/28 09:04:17;;;;;;;5.90;1.25;;;;;;;20.87;20.92;102601.84;1835509;77;21034;-64
2022/03/28 09:06:46;;;;;;;7.37;1.15;;;;;;;20.88;21.08;102600.88;1838291;77;21156;-62
2022/03/28 09:09:24;;;;;;;5.00;1.05;;;;;;;20.93;20.32;102582.28;1816810;78;21510;-63
2022/03/28 09:11:55;;;;;;;4.10;1.00;;;;;;;20.80;21.09;102609.32;1858403;77;21126;-65
2022/03/28 09:14:35;;;;;;;12.85;2.10;;;;;;;20.93;21.05;102608.20;1849862;77;21061;-65
2022/03/28 09:17:08;;;;;;;3.22;1.77;;;;;;;21.11;21.37;102604.53;1860884;77;21571;-61
2022/03/28 09:20:02;;;;;;;5.75;0.93;;;;;;;21.23;21.01;102601.68;1861934;77;21075;-62
2022/03/28 09:22:34;;;;;;;8.15;1.40;;;;;;;21.28;21.34;102597.39;1856515;77;21043;-60
2022/03/28 09:25:08;;;;;;;5.92;1.10;;;;;;;21.38;21.24;102601.31;1841456;77;21109;-60
2022/03/28 09:27:40;;;;;;;5.75;1.00;;;;;;;21.67;21.21;102596.14;1819881;78;21044;-61
2022/03/28 09:30:12;;;;;;;5.40;1.52;;;;;;;21.91;21.07;102593.42;1828897;78;21104;-61
2022/03/28 09:32:43;;;;;;;3.33;1.20;;;;;;;21.77;20.78;102590.66;1818812;78;21535;-60
2022/03/28 09:35:21;;;;;;;7.75;1.70;;;;;;;21.66;20.85;102601.13;1822607;78;21525;-60
2022/03/28 09:37:58;;;;;;;6.08;1.15;;;;;;;21.49;20.20;102604.28;1823411;78;21077;-62
2022/03/28 09:40:41;;;;;;;4.53;1.32;;;;;;;21.43;20.17;102563.03;1814994;78;21049;-66
2022/03/28 09:43:24;;;;;;;6.03;1.75;;;;;;;20.89;19.69;102579.86;1815172;78;21035;-65
2022/03/28 09:45:55;;;;;;;4.67;1.47;;;;;;;20.67;19.86;102575.64;1852187;77;21053;-67
2022/03/28 09:48:27;;;;;;;3.98;1.20;;;;;;;20.79;20.56;102583.03;1852482;77;21019;-66
2022/03/28 09:51:03;;;;;;;14.13;1.70;;;;;;;21.14;20.44;102580.75;1839252;77;21131;-64
2022/03/28 09:53:34;;;;;;;4.10;1.30;;;;;;;21.20;20.33;102581.27;1850777;77;21474;-63
2022/03/28 09:56:06;;;;;;;1.57;1.27;;;;;;;21.11;19.93;102589.80;1850613;77;21033;-63
2022/03/28 09:58:43;;;;;;;2.42;0.88;;;;;;;21.29;19.29;102576.36;1819425;78;21049;-63
2022/03/28 10:01:11;;;;;;;2.83;1.32;;;;;;;20.66;19.29;102571.25;1816954;78;21065;-63
2022/03/28 10:03:40;;;;;;;2.77;1.17;;;;;;;20.17;19.11;102582.63;1820688;77;21507;-59
2022/03/28 10:06:10;;;;;;;5.97;1.98;;;;;;;19.65;19.36;102589.18;1744684;80;21129;-59
2022/03/28 10:08:39;;;;;;;6.28;1.32;;;;;;;19.39;17.63;102596.63;1745343;80;21122;-61
2022/03/28 10:11:08;;;;;;;4.92;1.57;;;;;;;18.50;18.06;102584.59;1754249;80;21587;-66
2022/03/28 10:13:38;;;;;;;4.70;0.98;;;;;;;18.43;19.40;102586.64;1768929;79;21647;-67
2022/03/28 10:16:07;;;;;;;6.12;1.37;;;;;;;18.36;19.11;102579.84;1770241;79;21548;-70
2022/03/28 10:18:38;;;;;;;7.75;1.60;;;;;;;18.09;18.82;102585.86;1775733;79;21093;-62
2022/03/28 10:21:10;;;;;;;5.45;1.20;;;;;;;17.90;18.51;102553.30;1770060;80;21094;-64
2022/03/28 10:24:13;;;;;;;1.65;0.90;;;;;;;17.95;19.40;102583.77;1762002;79;21046;-64
2022/03/28 10:26:45;;;;;;;4.90;1.10;;;;;;;17.99;18.86;102572.52;1752964;80;21133;-62
2022/03/28 10:29:21;;;;;;;4.45;1.20;;;;;;;17.86;19.65;102563.69;1786057;78;21165;-66
2022/03/28 10:32:05;;;;;;;4.80;1.62;;;;;;;18.12;20.14;102571.94;1761612;79;21030;-62
2022/03/28 10:34:46;;;;;;;1.82;1.50;;;;;;;18.38;19.58;102576.64;1786149;78;21484;-63
2022/03/28 10:37:51;;;;;;;3.75;1.20;;;;;;;18.18;19.08;102564.14;1802773;79;21145;-63
2022/03/28 10:40:25;;;;;;;6.87;1.30;;;;;;;18.08;19.23;102554.34;1794369;79;21524;-63
2022/03/28 10:42:57;;;;;;;5.15;1.07;;;;;;;17.92;19.89;102567.42;1791766;79;21171;-63
2022/03/28 10:45:44;;;;;;;5.08;1.25;;;;;;;17.91;19.30;102548.86;1795795;79;21082;-62
2022/03/28 10:48:13;;;;;;;2.70;1.10;;;;;;;17.77;19.91;102572.50;1791947;79;21181;-62
2022/03/28 10:50:53;;;;;;;13.45;2.08;;;;;;;17.68;19.78;102550.61;1791624;79;21280;-64
2022/03/28 10:53:39;;;;;;;4.20;1.10;;;;;;;17.14;18.72;102550.52;1799761;79;21059;-63
2022/03/28 10:56:10;;;;;;;2.05;1.15;;;;;;;16.42;19.41;102553.97;1795349;79;21082;-61
2022/03/28 10:58:41;;;;;;;5.75;1.30;;;;;;;16.53;20.42;102557.12;1802475;79;21503;-61
2022/03/28 11:01:12;;;;;;;4.00;1.25;;;;;;;16.69;20.56;102567.20;1802570;79;21059;-61
2022/03/28 11:04:00;;;;;;;4.90;1.15;;;;;;;16.62;20.25;102561.69;1802762;79;21062;-60
2022/03/28 11:06:59;;;;;;;5.83;1.30;;;;;;;16.63;20.58;102556.80;1786053;79;21197;-60
2022/03/28 11:12:43;;;;;;;7.37;1.00;;;;;;;16.73;21.03;102552.89;1857351;77;21050;-61
2022/03/28 11:15:24;;;;;;;8.10;1.72;;;;;;;16.66;21.28;102546.91;1822766;77;21180;-63
2022/03/28 11:18:01;;;;;;;5.15;1.40;;;;;;;16.54;21.45;102555.32;1857036;77;21104;-63
2022/03/28 11:20:41;;;;;;;3.95;1.15;;;;;;;16.54;21.78;102542.91;1850002;77;21604;-61
2022/03/28 11:23:12;;;;;;;4.60;1.27;;;;;;;16.42;21.66;102537.16;1850602;77;21164;-64
2022/03/28 11:25:53;;;;;;;10.55;1.72;;;;;;;16.09;21.68;102542.23;1850931;77;21050;-63
2022/03/28 11:28:28;;;;;;;4.30;1.37;;;;;;;15.75;21.16;102542.03;1851160;77;21493;-63
2022/03/28 11:31:03;;;;;;;6.12;2.15;;;;;;;15.58;21.84;102544.30;1851283;77;21099;-60
2022/03/28 11:33:35;;;;;;;3.72;1.20;;;;;;;15.54;22.29;102543.52;1850477;77;21501;-63
2022/03/28 11:36:06;;;;;;;5.22;1.10;;;;;;;15.31;22.32;102546.01;1851232;77;21136;-62
2022/03/28 11:38:41;;;;;;;9.70;1.12;;;;;;;14.82;22.54;102533.73;1851410;77;21050;-65
2022/03/28 11:41:16;;;;;;;4.78;1.00;;;;;;;14.33;22.66;102545.63;1847991;77;21211;-62
2022/03/28 11:43:44;;;;;;;4.55;1.20;;;;;;;14.03;23.06;102546.83;1850652;77;21145;-66
2022/03/28 11:46:17;;;;;;;5.05;1.10;;;;;;;13.55;23.25;102533.85;1851282;77;21062;-65
2022/03/28 11:49:06;;;;;;;3.55;1.10;;;;;;;13.20;23.57;102523.56;1849458;77;21086;-64
2022/03/28 11:51:38;;;;;;;4.95;0.98;;;;;;;12.93;23.33;102540.44;1844701;78;21152;-59